Time;durP1;ratioP1;P1;durP2;ratioP2;P2;SDS_P1;SDS_P2;PMS_P1;PMS_P2;Temp;Humidity;BMP_temperature;BMP_pressure;BME280_temperature;BME280_humidity;BME280_pressure;Samples;Min_cycle;Max_cycle;Signal;HPM_P1;HPM_P2
2023/08/02 00:02:04;;;;;;;11.50;1.95;;;;;;;-142.75;100.00;75123.72;5087874;28;20035;-66
2023/08/02 00:04:29;;;;;;;4.93;1.67;;;;;;;-142.75;100.00;75127.66;5088736;28;20062;-66
2023/08/02 00:06:54;;;;;;;8.85;1.90;;;;;;;-142.75;100.00;75109.94;5088538;28;20024;-66
2023/08/02 00:09:20;;;;;;;9.00;2.00;;;;;;;-142.75;100.00;75106.00;5088499;28;20032;-65
2023/08/02 00:11:45;;;;;;;7.22;1.67;;;;;;;-142.75;100.00;75113.88;5088339;28;20020;-66
2023/08/02 00:14:10;;;;;;;10.70;2.45;;;;;;;-142.75;100.00;75129.63;5088613;28;20031;-66
2023/08/02 00:16:36;;;;;;;10.15;2.15;;;;;;;-142.75;100.00;75123.72;5088447;28;20035;-65
2023/08/02 00:19:02;;;;;;;5.90;1.65;;;;;;;-142.75;100.00;75109.94;5088567;28;20024;-66
2023/08/02 00:21:28;;;;;;;5.00;1.83;;;;;;;-142.75;100.00;75125.69;5087250;28;20449;-66
2023/08/02 00:23:53;;;;;;;8.68;2.22;;;;;;;-142.75;100.00;75133.56;5088390;28;20107;-66
2023/08/02 00:26:18;;;;;;;4.38;1.80;;;;;;;-142.75;100.00;75127.66;5088607;28;20020;-65
2023/08/02 00:28:44;;;;;;;7.20;1.83;;;;;;;-142.75;100.00;75115.84;5087290;28;20020;-66
2023/08/02 00:31:09;;;;;;;5.07;1.77;;;;;;;-142.75;100.00;75119.78;5088220;28;20499;-65
2023/08/02 00:33:34;;;;;;;7.43;2.50;;;;;;;-142.75;100.00;75106.00;5088224;28;20150;-66
2023/08/02 00:36:00;;;;;;;7.32;2.10;;;;;;;-142.75;100.00;75106.00;5088218;28;20089;-67
2023/08/02 00:38:25;;;;;;;8.85;2.60;;;;;;;-142.75;100.00;75121.75;5086886;28;20684;-66
2023/08/02 00:40:51;;;;;;;11.95;2.45;;;;;;;-142.75;100.00;75129.63;5088113;28;20160;-66
2023/08/02 00:43:16;;;;;;;10.38;2.78;;;;;;;-142.75;100.00;75106.00;5088122;28;20043;-65
2023/08/02 00:45:41;;;;;;;7.35;2.17;;;;;;;-142.75;100.00;75106.00;5088194;28;20647;-65
2023/08/02 00:48:07;;;;;;;10.30;2.20;;;;;;;-142.75;100.00;75102.06;5088388;28;20047;-65
2023/08/02 00:50:35;;;;;;;9.52;2.38;;;;;;;-142.75;100.00;75127.66;5088246;28;20149;-65
2023/08/02 00:53:02;;;;;;;9.10;2.53;;;;;;;-142.75;100.00;75117.81;5090884;28;20027;-65
2023/08/02 00:55:28;;;;;;;4.47;2.20;;;;;;;-142.75;100.00;75147.34;5092024;28;20107;-65
2023/08/02 00:57:53;;;;;;;7.07;2.35;;;;;;;-142.75;100.00;75121.75;5091942;28;20174;-65
2023/08/02 01:00:19;;;;;;;8.68;2.90;;;;;;;-142.75;100.00;75117.81;5090807;28;20061;-65
2023/08/02 01:02:44;;;;;;;9.60;2.63;;;;;;;-142.75;100.00;75102.06;5092045;28;20545;-65
2023/08/02 01:05:10;;;;;;;7.68;2.35;;;;;;;-142.75;100.00;75104.03;5091809;28;20487;-66
2023/08/02 01:07:57;;;;;;;10.88;2.53;;;;;;;-142.75;100.00;75109.94;5091757;28;20023;-66
2023/08/02 01:10:29;;;;;;;12.25;2.90;;;;;;;-142.75;100.00;75115.84;5091616;28;20120;-65
2023/08/02 01:12:55;;;;;;;9.18;2.72;;;;;;;-142.75;100.00;75113.88;5091517;28;20030;-65
2023/08/02 01:15:22;;;;;;;7.88;2.53;;;;;;;-142.75;100.00;75129.63;5091476;28;20119;-65
2023/08/02 01:17:49;;;;;;;10.77;1.80;;;;;;;-142.75;100.00;75127.66;5091874;28;20471;-65
2023/08/02 01:20:15;;;;;;;7.15;2.40;;;;;;;-142.75;100.00;75121.75;5091594;28;20028;-65
2023/08/02 01:22:40;;;;;;;7.18;2.53;;;;;;;-142.75;100.00;75117.81;5079355;28;20028;-65
2023/08/02 01:25:06;;;;;;;11.55;3.17;;;;;;;-142.75;100.00;75109.94;5071428;28;20364;-65
2023/08/02 01:27:37;;;;;;;8.48;2.70;;;;;;;-142.75;100.00;75102.06;5071331;28;20081;-65
2023/08/02 01:30:06;;;;;;;16.23;2.67;;;;;;;-142.75;100.00;75121.75;5071209;28;20047;-65
2023/08/02 01:32:31;;;;;;;9.02;2.20;;;;;;;-142.75;100.00;75125.69;5070933;28;20111;-65
2023/08/02 01:34:57;;;;;;;11.60;2.80;;;;;;;-142.75;100.00;75113.88;5071004;28;20124;-65
2023/08/02 01:37:22;;;;;;;8.25;2.67;;;;;;;-142.75;100.00;75125.69;5071009;28;20484;-65
2023/08/02 01:39:48;;;;;;;8.98;2.70;;;;;;;-142.75;100.00;75121.75;5071177;28;20141;-65
2023/08/02 01:42:14;;;;;;;13.00;2.55;;;;;;;-142.75;100.00;75106.00;5070516;28;20108;-65
2023/08/02 01:44:39;;;;;;;11.43;2.50;;;;;;;-142.75;100.00;75106.00;5070848;28;20108;-66
2023/08/02 01:47:04;;;;;;;12.30;3.13;;;;;;;-142.75;100.00;75106.00;5070807;28;20101;-65
2023/08/02 01:49:30;;;;;;;10.05;2.53;;;;;;;-142.75;100.00;75094.22;5069366;28;20024;-65
2023/08/02 01:51:55;;;;;;;12.95;2.83;;;;;;;-142.75;100.00;75090.28;5070539;28;21557;-65
2023/08/02 01:54:20;;;;;;;10.55;2.45;;;;;;;-142.75;100.00;75068.63;5070606;28;20173;-66
2023/08/02 01:56:46;;;;;;;7.60;2.75;;;;;;;-142.75;100.00;75084.38;5077645;28;20479;-65
2023/08/02 01:59:12;;;;;;;7.65;2.30;;;;;;;-142.75;100.00;75072.56;5091100;28;20023;-65
2023/08/02 02:01:38;;;;;;;12.45;2.85;;;;;;;-142.75;100.00;75062.72;5090604;28;20016;-65
2023/08/02 02:04:03;;;;;;;8.27;2.03;;;;;;;-142.75;100.00;75066.66;5089506;28;20105;-65
2023/08/02 02:06:28;;;;;;;10.23;2.72;;;;;;;-142.75;100.00;75064.69;5089153;28;20016;-65
2023/08/02 02:08:54;;;;;;;9.05;2.45;;;;;;;-142.75;100.00;75045.00;5090551;28;20560;-65
2023/08/02 02:11:19;;;;;;;9.40;2.78;;;;;;;-142.75;100.00;75035.19;5090438;28;20051;-65
2023/08/02 02:13:44;;;;;;;7.25;2.70;;;;;;;-142.75;100.00;75025.34;5090564;28;20028;-65
2023/08/02 02:16:10;;;;;;;11.77;2.78;;;;;;;-142.75;100.00;75035.19;5090284;28;20054;-65
2023/08/02 02:18:35;;;;;;;13.70;3.10;;;;;;;-142.75;100.00;75035.19;5090316;28;20069;-65
2023/08/02 02:21:00;;;;;;;9.52;2.30;;;;;;;-142.75;100.00;75017.47;5090159;28;20414;-65
2023/08/02 02:23:25;;;;;;;7.93;2.85;;;;;;;-142.75;100.00;75011.56;5091056;28;20028;-65
2023/08/02 02:25:51;;;;;;;10.63;2.47;;;;;;;-142.75;100.00;75025.34;5090328;28;20073;-65
2023/08/02 02:28:19;;;;;;;8.38;2.80;;;;;;;-142.75;100.00;75015.50;5090121;28;20028;-65
2023/08/02 02:30:44;;;;;;;9.32;2.80;;;;;;;-142.75;100.00;75031.25;5090226;28;20019;-65
2023/08/02 02:33:10;;;;;;;12.63;2.92;;;;;;;-142.75;100.00;75015.50;5075151;28;20029;-65
2023/08/02 02:35:35;;;;;;;8.50;2.75;;;;;;;-142.75;100.00;74997.78;5069902;28;20365;-65
2023/08/02 02:38:01;;;;;;;9.70;2.85;;;;;;;-142.75;100.00;75025.34;5069945;28;20016;-65
2023/08/02 02:40:26;;;;;;;11.75;3.03;;;;;;;-142.75;100.00;75013.53;5069708;28;20176;-65
2023/08/02 02:42:51;;;;;;;9.68;3.28;;;;;;;-142.75;100.00;75001.72;5069607;28;20028;-65
2023/08/02 02:45:17;;;;;;;13.80;3.70;;;;;;;-142.75;100.00;75025.34;5069945;28;20019;-65
2023/08/02 02:47:42;;;;;;;12.15;3.30;;;;;;;-142.75;100.00;75035.19;5069556;28;20422;-65
2023/08/02 02:50:08;;;;;;;13.43;3.72;;;;;;;-142.75;100.00;75003.69;5069400;28;20601;-65
2023/08/02 02:52:33;;;;;;;15.75;3.47;;;;;;;-142.75;100.00;74993.84;5069284;28;20024;-65
2023/08/02 02:54:58;;;;;;;10.70;3.35;;;;;;;-142.75;100.00;74984.00;5069564;28;20508;-65
2023/08/02 02:57:24;;;;;;;13.75;4.90;;;;;;;-142.75;100.00;74964.34;5069562;28;20035;-65
2023/08/02 02:59:49;;;;;;;12.38;3.80;;;;;;;-142.75;100.00;74954.50;5071390;28;20077;-64
2023/08/02 03:02:14;;;;;;;13.60;3.78;;;;;;;-142.75;100.00;74948.59;5089199;28;20039;-65
2023/08/02 03:04:40;;;;;;;13.85;3.95;;;;;;;-142.75;100.00;74948.59;5089532;28;20111;-65
2023/08/02 03:07:05;;;;;;;14.10;4.15;;;;;;;-142.75;100.00;74946.63;5089817;28;20443;-65
2023/08/02 03:09:31;;;;;;;16.52;4.78;;;;;;;-142.75;100.00;74930.88;5089730;28;20498;-65
2023/08/02 03:11:56;;;;;;;17.83;4.07;;;;;;;-142.75;100.00;74936.78;5089280;28;20111;-65
2023/08/02 03:14:22;;;;;;;14.60;4.22;;;;;;;-142.75;100.00;74946.63;5089032;28;20032;-66
2023/08/02 03:16:47;;;;;;;13.98;4.07;;;;;;;-142.75;100.00;74917.13;5089868;28;20031;-65
2023/08/02 03:19:12;;;;;;;12.55;4.32;;;;;;;-142.75;100.00;74915.16;5089243;28;20107;-65
2023/08/02 03:21:38;;;;;;;9.45;3.65;;;;;;;-142.75;100.00;74891.53;5088896;28;20073;-65
2023/08/02 03:24:05;;;;;;;9.32;4.30;;;;;;;-142.75;100.00;74901.38;5089343;28;20024;-65
2023/08/02 03:26:30;;;;;;;13.40;3.90;;;;;;;-142.75;100.00;74885.63;5089153;28;20045;-64
2023/08/02 03:28:56;;;;;;;15.02;3.38;;;;;;;-142.75;100.00;74879.72;5089101;28;20035;-65
2023/08/02 03:31:22;;;;;;;12.18;3.53;;;;;;;-142.75;100.00;74860.06;5087274;28;20027;-65
2023/08/02 03:33:47;;;;;;;10.15;4.00;;;;;;;-142.75;100.00;74858.09;5089176;28;20020;-65
2023/08/02 03:36:12;;;;;;;11.43;3.35;;;;;;;-142.75;100.00;74840.38;5088953;28;20020;-65
2023/08/02 03:38:38;;;;;;;9.55;3.53;;;;;;;-142.75;100.00;74842.34;5089060;28;20081;-65
2023/08/02 03:41:03;;;;;;;10.32;3.67;;;;;;;-142.75;100.00;74842.34;5088407;28;20526;-65
2023/08/02 03:43:29;;;;;;;10.48;3.15;;;;;;;-142.75;100.00;74830.53;5089120;28;20028;-65
2023/08/02 03:45:54;;;;;;;11.77;3.65;;;;;;;-142.75;100.00;74826.59;5089025;28;20024;-65
2023/08/02 03:48:20;;;;;;;12.82;3.22;;;;;;;-142.75;100.00;74808.91;5072915;28;20111;-65
2023/08/02 03:50:45;;;;;;;11.95;3.45;;;;;;;-142.75;100.00;74814.78;5071207;28;20028;-65
2023/08/02 03:53:11;;;;;;;9.23;3.10;;;;;;;-142.75;100.00;74808.91;5088441;28;20059;-65
2023/08/02 03:55:36;;;;;;;11.73;3.75;;;;;;;-142.75;100.00;74795.13;5088699;28;20028;-65
2023/08/02 03:58:01;;;;;;;7.00;2.58;;;;;;;-142.75;100.00;74793.16;5088446;28;20471;-65
2023/08/02 04:00:27;;;;;;;7.93;2.80;;;;;;;-142.75;100.00;74799.06;5088525;28;20092;-65
2023/08/02 04:02:53;;;;;;;11.80;2.88;;;;;;;-142.75;100.00;74779.38;5088030;28;20028;-65
2023/08/02 04:05:19;;;;;;;10.15;3.22;;;;;;;-142.75;100.00;74781.34;5088510;28;20103;-66
2023/08/02 04:07:44;;;;;;;9.13;3.08;;;;;;;-142.75;100.00;74795.13;5088250;28;20111;-65
2023/08/02 04:10:10;;;;;;;7.32;2.60;;;;;;;-142.75;100.00;74783.31;5088246;28;20119;-65
2023/08/02 04:12:35;;;;;;;10.25;3.35;;;;;;;-142.75;100.00;74783.31;5082991;28;20117;-65
2023/08/02 04:15:01;;;;;;;10.20;2.60;;;;;;;-142.75;100.00;74771.50;5072793;28;20105;-65
2023/08/02 04:17:27;;;;;;;8.57;2.90;;;;;;;-142.75;100.00;74783.31;5088446;28;20483;-66
2023/08/02 04:19:52;;;;;;;10.68;2.95;;;;;;;-142.75;100.00;74779.38;5087884;28;20028;-64
2023/08/02 04:22:17;;;;;;;8.43;3.28;;;;;;;-142.75;100.00;74787.25;5087611;28;20457;-65
2023/08/02 04:24:42;;;;;;;8.25;2.83;;;;;;;-142.75;100.00;74777.41;5087916;28;20028;-65
2023/08/02 04:27:08;;;;;;;10.20;3.63;;;;;;;-142.75;100.00;74759.72;5089200;28;20052;-64
2023/08/02 04:29:33;;;;;;;8.02;3.13;;;;;;;-142.75;100.00;74763.63;5091926;28;20035;-65
2023/08/02 04:31:59;;;;;;;9.88;3.25;;;;;;;-142.75;100.00;74761.66;5090909;28;20073;-65
2023/08/02 04:34:24;;;;;;;9.40;3.35;;;;;;;-142.75;100.00;74745.94;5091946;28;20059;-65
2023/08/02 04:36:51;;;;;;;7.85;3.10;;;;;;;-142.75;100.00;74740.03;5089672;28;20092;-65
2023/08/02 04:39:16;;;;;;;7.88;3.13;;;;;;;-142.75;100.00;74728.22;5071709;28;20103;-65
2023/08/02 04:41:41;;;;;;;9.70;3.30;;;;;;;-142.75;100.00;74724.28;5070765;28;20115;-64
2023/08/02 04:44:07;;;;;;;8.35;3.35;;;;;;;-142.75;100.00;74730.19;5071523;28;20052;-65
2023/08/02 04:46:32;;;;;;;10.05;3.53;;;;;;;-142.75;100.00;74712.47;5070567;28;20035;-66
2023/08/02 04:48:58;;;;;;;7.72;3.60;;;;;;;-142.75;100.00;74692.81;5071296;28;20411;-64
2023/08/02 04:51:24;;;;;;;10.32;3.85;;;;;;;-142.75;100.00;74682.97;5070972;28;20048;-64
2023/08/02 04:53:49;;;;;;;9.48;3.53;;;;;;;-142.75;100.00;74673.13;5071675;28;20032;-65
2023/08/02 04:56:15;;;;;;;7.38;3.72;;;;;;;-142.75;100.00;74653.47;5071296;28;20491;-65
2023/08/02 04:58:41;;;;;;;7.03;3.80;;;;;;;-142.75;100.00;74647.56;5083722;28;20464;-65
2023/08/02 05:01:07;;;;;;;15.00;4.22;;;;;;;-142.75;100.00;74661.31;5090758;28;20441;-65
2023/08/02 05:03:33;;;;;;;8.90;4.18;;;;;;;-142.75;100.00;74612.13;5091448;28;20030;-65
2023/08/02 05:06:03;;;;;;;6.80;3.80;;;;;;;-142.75;100.00;74612.13;5091214;28;20028;-65
2023/08/02 05:08:31;;;;;;;9.63;4.20;;;;;;;-142.75;100.00;74608.19;5091301;28;20032;-64
2023/08/02 05:10:56;;;;;;;7.50;4.03;;;;;;;-142.75;100.00;74594.44;5090760;28;20457;-65
2023/08/02 05:13:23;;;;;;;9.85;3.88;;;;;;;-142.75;100.00;74600.34;5091426;28;20059;-64
2023/08/02 05:15:49;;;;;;;8.65;4.13;;;;;;;-142.75;100.00;74574.75;5091534;28;20028;-66
2023/08/02 05:18:15;;;;;;;11.05;4.65;;;;;;;-142.75;100.00;74568.84;5091687;28;20028;-65
2023/08/02 05:20:40;;;;;;;8.50;4.43;;;;;;;-142.75;100.00;74582.63;5091302;28;20072;-64
2023/08/02 05:23:05;;;;;;;7.07;3.83;;;;;;;-142.75;100.00;74559.00;5091469;28;20141;-65
2023/08/02 05:25:32;;;;;;;9.75;4.60;;;;;;;-142.75;100.00;74559.00;5091599;28;20048;-65
2023/08/02 05:27:58;;;;;;;8.75;4.47;;;;;;;-142.75;100.00;74578.69;5090327;28;20024;-65
2023/08/02 05:30:23;;;;;;;10.07;4.78;;;;;;;-142.75;100.00;74562.94;5091514;28;20035;-64
2023/08/02 05:32:48;;;;;;;8.52;4.03;;;;;;;-142.75;100.00;74559.00;5091425;28;20051;-64
2023/08/02 05:35:14;;;;;;;8.95;4.53;;;;;;;-142.75;100.00;74551.16;5091460;28;20372;-64
2023/08/02 05:37:39;;;;;;;8.32;4.57;;;;;;;-142.75;100.00;74539.34;5091287;28;20672;-64
2023/08/02 05:40:05;;;;;;;8.50;4.05;;;;;;;-142.75;100.00;74543.28;5091182;28;20099;-64
2023/08/02 05:42:31;;;;;;;8.88;4.20;;;;;;;-142.75;100.00;74535.41;5090798;28;20038;-64
2023/08/02 05:44:56;;;;;;;13.05;3.97;;;;;;;-142.75;100.00;74537.38;5090944;28;20404;-64
2023/08/02 05:47:22;;;;;;;9.10;4.10;;;;;;;-142.75;100.00;74521.63;5071087;28;20401;-64
2023/08/02 05:49:48;;;;;;;6.95;3.70;;;;;;;-142.75;100.00;74521.63;5070695;28;20031;-63
2023/08/02 05:52:16;;;;;;;8.45;3.63;;;;;;;-142.75;100.00;74501.97;5070388;28;20027;-63
2023/08/02 05:54:42;;;;;;;8.10;4.22;;;;;;;-142.75;100.00;74501.97;5070596;28;20488;-63
2023/08/02 05:57:07;;;;;;;6.00;3.42;;;;;;;-142.75;100.00;74501.97;5070695;28;20103;-63
2023/08/02 05:59:33;;;;;;;7.57;3.75;;;;;;;-142.75;100.00;74484.25;5070545;28;20086;-63
2023/08/02 06:01:59;;;;;;;5.75;3.30;;;;;;;-142.75;100.00;74468.50;5070382;28;20016;-63
2023/08/02 06:04:25;;;;;;;7.63;3.72;;;;;;;-142.75;100.00;74462.59;5070834;28;20082;-62
2023/08/02 06:06:51;;;;;;;5.88;3.28;;;;;;;-142.75;100.00;74450.81;5071489;28;20496;-61
2023/08/02 06:09:16;;;;;;;6.90;3.40;;;;;;;-142.75;100.00;74456.72;5070665;28;20059;-61
2023/08/02 06:11:41;;;;;;;5.95;3.08;;;;;;;-142.75;100.00;74439.00;5070143;28;20029;-61
2023/08/02 06:14:07;;;;;;;6.97;3.17;;;;;;;-142.75;100.00;74425.22;5070244;28;20032;-62
2023/08/02 06:16:32;;;;;;;6.15;3.17;;;;;;;-142.75;100.00;74421.28;5071626;28;20064;-62
2023/08/02 06:18:58;;;;;;;5.82;2.97;;;;;;;-142.75;100.00;74427.19;5070227;28;20021;-62
2023/08/02 06:21:23;;;;;;;10.38;3.03;;;;;;;-142.75;100.00;74411.47;5071226;28;20027;-62
2023/08/02 06:23:49;;;;;;;7.28;2.55;;;;;;;-142.75;100.00;74399.66;5090466;28;20028;-62
2023/08/02 06:26:15;;;;;;;4.85;2.63;;;;;;;-142.75;100.00;74387.84;5090291;28;20364;-62
2023/08/02 06:28:40;;;;;;;6.85;2.83;;;;;;;-142.75;100.00;74378.00;5089942;28;20031;-63
2023/08/02 06:31:05;;;;;;;5.97;3.08;;;;;;;-142.75;100.00;74379.97;5089762;28;20098;-62
2023/08/02 06:33:31;;;;;;;5.55;2.97;;;;;;;-142.75;100.00;74379.97;5088698;28;20035;-62
2023/08/02 06:35:56;;;;;;;5.72;2.92;;;;;;;-142.75;100.00;74368.19;5089918;28;20028;-61
2023/08/02 06:38:21;;;;;;;6.05;2.70;;;;;;;-142.75;100.00;74358.34;5089887;28;20036;-62
2023/08/02 06:40:47;;;;;;;3.70;2.17;;;;;;;-142.75;100.00;74362.28;5090275;28;20027;-59
2023/08/02 06:43:12;;;;;;;5.90;2.40;;;;;;;-142.75;100.00;74362.28;5089768;28;20111;-61
2023/08/02 06:45:44;;;;;;;4.50;2.67;;;;;;;-142.75;100.00;74350.47;5089956;28;20020;-61
2023/08/02 06:48:09;;;;;;;8.93;3.08;;;;;;;-142.75;100.00;74334.72;5089765;28;20051;-62
2023/08/02 06:50:37;;;;;;;5.90;2.30;;;;;;;-142.75;100.00;74322.94;5089005;28;20059;-62
2023/08/02 06:53:05;;;;;;;5.07;2.45;;;;;;;-142.75;100.00;74315.06;5089524;28;20024;-62
2023/08/02 06:55:30;;;;;;;4.32;2.72;;;;;;;-142.75;100.00;74315.06;5089459;28;20032;-62
2023/08/02 06:57:56;;;;;;;4.75;2.35;;;;;;;-142.75;100.00;74307.19;5089658;28;20502;-63
2023/08/02 07:00:21;;;;;;;4.05;2.58;;;;;;;-142.75;100.00;74311.13;5089621;28;20110;-62
2023/08/02 07:02:47;;;;;;;4.72;2.60;;;;;;;-142.75;100.00;74303.25;5089356;28;20023;-63
2023/08/02 07:05:12;;;;;;;3.88;2.30;;;;;;;-142.75;100.00;74291.44;5089629;28;20495;-62
2023/08/02 07:07:37;;;;;;;4.82;2.30;;;;;;;-142.75;100.00;74297.34;5089483;28;20035;-61
2023/08/02 07:10:03;;;;;;;4.78;3.15;;;;;;;-142.75;100.00;74279.66;5089475;28;20024;-61
2023/08/02 07:12:29;;;;;;;3.60;2.38;;;;;;;-142.75;100.00;74281.59;5089011;28;20034;-61
2023/08/02 07:14:54;;;;;;;6.63;3.05;;;;;;;-142.75;100.00;74259.97;5089515;28;20103;-60
2023/08/02 07:17:19;;;;;;;5.90;2.20;;;;;;;-142.75;100.00;74252.09;5089612;28;20023;-61
2023/08/02 07:19:45;;;;;;;3.72;2.28;;;;;;;-142.75;100.00;74238.31;5085720;28;20078;-60
2023/08/02 07:22:13;;;;;;;4.30;2.05;;;;;;;-142.75;100.00;74242.25;5068815;28;20040;-61
2023/08/02 07:24:38;;;;;;;3.38;2.22;;;;;;;-142.75;100.00;74236.34;5068876;28;20115;-61
2023/08/02 07:27:04;;;;;;;4.60;2.10;;;;;;;-142.75;100.00;74226.53;5071463;28;20677;-59
2023/08/02 07:29:29;;;;;;;7.18;2.70;;;;;;;-142.75;100.00;74208.81;5070542;28;20067;-59
2023/08/02 07:31:55;;;;;;;3.40;2.03;;;;;;;-142.75;100.00;74200.94;5070468;28;20111;-60
2023/08/02 07:34:20;;;;;;;2.70;1.50;;;;;;;-142.75;100.00;74208.81;5073806;28;20025;-59
2023/08/02 07:36:45;;;;;;;2.22;1.42;;;;;;;-142.75;100.00;74208.81;5073591;28;20085;-60
2023/08/02 07:39:11;;;;;;;2.90;1.75;;;;;;;-142.75;100.00;74197.00;5074200;28;20043;-60
2023/08/02 07:41:36;;;;;;;3.45;1.50;;;;;;;-142.75;100.00;74197.00;5077262;28;20028;-60
2023/08/02 07:44:02;;;;;;;3.15;1.42;;;;;;;-142.75;100.00;74181.28;5077433;28;20102;-61
2023/08/02 07:46:27;;;;;;;2.90;1.40;;;;;;;-142.75;100.00;74189.16;5080804;28;20032;-59
2023/08/02 07:48:52;;;;;;;2.95;1.25;;;;;;;-142.75;100.00;74169.47;5087285;28;20464;-60
2023/08/02 07:51:19;;;;;;;4.63;1.33;;;;;;;-142.75;100.00;74161.59;5078864;28;20028;-58
2023/08/02 07:53:45;;;;;;;2.25;1.20;;;;;;;-142.75;100.00;74145.88;5080970;28;20035;-59
2023/08/02 07:56:10;;;;;;;2.05;0.98;;;;;;;-142.75;100.00;74167.50;5081904;28;20024;-61
2023/08/02 07:58:35;;;;;;;1.65;0.75;;;;;;;-142.75;100.00;74169.47;5079758;28;20032;-58
2023/08/02 08:01:06;;;;;;;1.83;0.90;;;;;;;-142.75;100.00;74130.13;5068203;28;20028;-61
2023/08/02 08:03:31;;;;;;;1.70;1.00;;;;;;;-142.75;100.00;74147.84;5068171;28;20085;-62
2023/08/02 08:05:56;;;;;;;1.88;1.10;;;;;;;-142.75;100.00;74141.94;5068469;28;20103;-60
2023/08/02 08:08:22;;;;;;;3.83;1.30;;;;;;;-142.75;100.00;74128.16;5078677;28;20028;-61
2023/08/02 08:10:51;;;;;;;2.40;1.10;;;;;;;-142.75;100.00;74098.66;5072075;28;20119;-60
2023/08/02 08:13:17;;;;;;;2.15;1.20;;;;;;;-142.75;100.00;74102.59;5066689;28;20120;-61
2023/08/02 08:15:43;;;;;;;2.30;1.35;;;;;;;-142.75;100.00;74082.91;5065459;28;20131;-60
2023/08/02 08:18:09;;;;;;;2.58;1.15;;;;;;;-142.75;100.00;74071.09;5065529;28;20476;-61
2023/08/02 08:20:34;;;;;;;2.20;1.20;;;;;;;-142.75;100.00;74061.28;5067025;28;20074;-59
2023/08/02 08:22:59;;;;;;;1.77;1.13;;;;;;;-142.75;100.00;74033.72;5071679;28;21589;-60
2023/08/02 08:25:25;;;;;;;2.03;1.48;;;;;;;-142.75;100.00;74029.78;5087427;28;20042;-58
2023/08/02 08:27:50;;;;;;;2.55;1.52;;;;;;;-142.75;100.00;74059.31;5088192;28;20031;-60
2023/08/02 08:30:16;;;;;;;2.55;1.52;;;;;;;-142.75;100.00;74035.69;5086435;28;20063;-60
2023/08/02 08:32:41;;;;;;;2.95;2.05;;;;;;;-142.75;100.00;74008.16;5087259;28;20103;-61
2023/08/02 08:35:09;;;;;;;3.72;1.90;;;;;;;-142.75;100.00;73980.63;5087580;28;20111;-61
2023/08/02 08:37:34;;;;;;;4.72;2.60;;;;;;;-142.75;100.00;73966.84;5087523;28;20034;-63
2023/08/02 08:40:00;;;;;;;5.05;2.40;;;;;;;-142.75;100.00;73964.88;5087635;28;20036;-60
2023/08/02 08:42:25;;;;;;;3.78;2.85;;;;;;;-142.75;100.00;73957.00;5087144;28;20036;-61
2023/08/02 08:44:52;;;;;;;4.38;2.78;;;;;;;-142.75;100.00;73915.69;5087969;28;20051;-60
2023/08/02 08:47:18;;;;;;;4.53;2.67;;;;;;;-142.75;100.00;73907.84;5087424;28;20052;-60
2023/08/02 08:49:46;;;;;;;4.45;3.00;;;;;;;-142.75;100.00;73862.59;5087387;28;20510;-60
2023/08/02 08:52:15;;;;;;;3.58;2.75;;;;;;;-142.75;100.00;73878.31;5079064;28;20129;-61
2023/08/02 08:54:44;;;;;;;4.00;2.53;;;;;;;-142.75;100.00;73888.16;5067240;28;20143;-61
2023/08/02 08:57:10;;;;;;;4.55;2.70;;;;;;;-142.75;100.00;73903.91;5067110;28;20488;-59
2023/08/02 08:59:36;;;;;;;6.10;3.08;;;;;;;-142.75;100.00;73888.16;5067240;28;20020;-61
2023/08/02 09:02:03;;;;;;;5.55;2.72;;;;;;;-142.75;100.00;73878.31;5065797;28;20028;-61
2023/08/02 09:04:32;;;;;;;3.47;2.42;;;;;;;-142.75;100.00;73852.75;5067404;28;20024;-61
2023/08/02 09:06:57;;;;;;;5.18;2.53;;;;;;;-142.75;100.00;73848.81;5066923;28;20028;-61
2023/08/02 09:09:23;;;;;;;5.13;2.88;;;;;;;-142.75;100.00;73846.84;5067233;28;20094;-61
2023/08/02 09:11:49;;;;;;;5.70;2.53;;;;;;;-142.75;100.00;73817.34;5066736;28;20024;-61
2023/08/02 09:14:16;;;;;;;3.75;2.63;;;;;;;-142.75;100.00;73805.53;5070996;28;20025;-61
2023/08/02 09:17:02;;;;;;;4.07;2.78;;;;;;;-142.75;100.00;73772.09;5070839;28;20479;-59
2023/08/02 09:19:32;;;;;;;6.72;2.83;;;;;;;-142.75;100.00;73762.25;5070478;28;20032;-61
2023/08/02 09:22:07;;;;;;;4.20;2.78;;;;;;;-142.75;100.00;73752.44;5070500;28;20020;-62
2023/08/02 09:24:37;;;;;;;5.32;2.78;;;;;;;-142.75;100.00;73766.19;5070867;28;20025;-61
2023/08/02 09:27:10;;;;;;;2.85;2.28;;;;;;;-142.75;100.00;73736.69;5070460;28;20028;-61
2023/08/02 09:29:49;;;;;;;3.83;2.20;;;;;;;-142.75;100.00;73732.75;5070597;28;20721;-62
2023/08/02 09:32:16;;;;;;;2.83;2.03;;;;;;;-142.75;100.00;73711.13;5070313;28;20031;-62
2023/08/02 09:34:56;;;;;;;3.20;2.25;;;;;;;-142.75;100.00;73679.66;5070704;28;20020;-62
2023/08/02 09:37:31;;;;;;;6.50;2.38;;;;;;;-142.75;100.00;73628.50;5070677;28;20389;-62
2023/08/02 09:39:56;;;;;;;8.05;3.28;;;;;;;-142.75;100.00;73632.44;5070532;28;20044;-62
2023/08/02 09:42:25;;;;;;;4.60;2.35;;;;;;;-142.75;100.00;73622.59;5069902;28;20104;-61
2023/08/02 09:44:53;;;;;;;5.05;2.53;;;;;;;-142.75;100.00;73587.19;5071004;28;20365;-62
2023/08/02 09:47:19;;;;;;;3.33;2.15;;;;;;;-142.75;100.00;73604.91;5070584;28;21987;-63
2023/08/02 09:49:44;;;;;;;5.47;2.20;;;;;;;-142.75;100.00;73579.31;5088788;28;20107;-63
2023/08/02 09:52:10;;;;;;;3.85;1.70;;;;;;;-142.75;100.00;73644.25;5089999;28;20020;-62
2023/08/02 09:54:36;;;;;;;3.47;1.45;;;;;;;-142.75;100.00;73663.91;5090197;28;20483;-62
2023/08/02 09:57:02;;;;;;;6.18;1.05;;;;;;;-142.75;100.00;73701.28;5090243;28;20644;-62
2023/08/02 09:59:31;;;;;;;3.42;1.13;;;;;;;-142.75;100.00;73689.47;5090018;28;20080;-62
2023/08/02 10:01:57;;;;;;;4.18;1.35;;;;;;;-142.75;100.00;73665.88;5089803;28;20024;-62
2023/08/02 10:04:24;;;;;;;5.63;1.45;;;;;;;-142.75;100.00;73632.44;5090129;28;20101;-62
2023/08/02 10:06:56;;;;;;;7.28;1.65;;;;;;;-142.75;100.00;73634.41;5090286;28;20450;-63
2023/08/02 10:09:28;;;;;;;11.70;1.77;;;;;;;-142.75;100.00;73640.31;5090153;28;20028;-62
2023/08/02 10:12:00;;;;;;;3.47;1.23;;;;;;;-142.75;100.00;73709.16;5089987;28;20183;-62
2023/08/02 10:14:26;;;;;;;6.07;1.20;;;;;;;-142.75;100.00;73756.38;5089628;28;20063;-62
2023/08/02 10:16:52;;;;;;;5.03;1.40;;;;;;;-142.75;100.00;73789.81;5089741;28;20400;-62
2023/08/02 10:19:19;;;;;;;6.45;1.33;;;;;;;-142.75;100.00;73717.03;5090053;28;20412;-63
2023/08/02 10:21:46;;;;;;;3.30;1.10;;;;;;;-142.75;100.00;73713.09;5089538;28;20052;-63
2023/08/02 10:24:13;;;;;;;6.45;0.93;;;;;;;-142.75;100.00;73701.28;5088838;28;20746;-63
2023/08/02 10:26:39;;;;;;;2.85;1.00;;;;;;;-142.75;100.00;73720.94;5089813;28;20046;-63
2023/08/02 10:29:06;;;;;;;5.07;1.02;;;;;;;-142.75;100.00;73687.50;5089329;28;20027;-63
2023/08/02 10:31:32;;;;;;;8.00;1.75;;;;;;;-142.75;100.00;73711.13;5087509;28;20115;-62
2023/08/02 10:33:57;;;;;;;10.52;1.80;;;;;;;-142.75;100.00;73732.75;5089417;28;20107;-63
2023/08/02 10:36:23;;;;;;;6.60;1.88;;;;;;;-142.75;100.00;73752.44;5089829;28;20079;-63
2023/08/02 10:38:54;;;;;;;4.53;1.50;;;;;;;-142.75;100.00;73730.78;5090196;28;20093;-63
2023/08/02 10:41:25;;;;;;;8.52;1.42;;;;;;;-142.75;100.00;73697.34;5089903;28;20024;-63
2023/08/02 10:43:53;;;;;;;5.97;1.70;;;;;;;-142.75;100.00;73677.69;5090650;28;21479;-62
2023/08/02 10:46:24;;;;;;;8.13;2.03;;;;;;;-142.75;100.00;73713.09;5090250;28;20016;-63
2023/08/02 10:48:50;;;;;;;12.98;2.10;;;;;;;-142.75;100.00;73709.16;5090207;28;20020;-62
2023/08/02 10:51:28;;;;;;;5.00;1.60;;;;;;;-142.75;100.00;73677.69;5089626;28;20028;-62
2023/08/02 10:54:14;;;;;;;5.43;1.52;;;;;;;-142.75;100.00;73695.38;5089848;28;20024;-62
2023/08/02 10:56:52;;;;;;;5.38;1.05;;;;;;;-142.75;100.00;73685.53;5081384;28;20024;-63
2023/08/02 10:59:23;;;;;;;3.53;0.82;;;;;;;-142.75;100.00;73687.50;5089817;28;20019;-63
2023/08/02 11:01:57;;;;;;;13.93;2.00;;;;;;;-142.75;100.00;73689.47;5089472;28;20035;-65
2023/08/02 11:04:23;;;;;;;11.43;1.00;;;;;;;-142.75;100.00;73713.09;5087832;28;20561;-65